sensor_id;sensor_type;location;lat;lon;timestamp;pressure;altitude;pressure_sealevel;temperature;humidity
8229;BME280;4155;50.118;8.714;2022-09-23T00:01:14;100447.94;;;9.37;82.84
8229;BME280;4155;50.118;8.714;2022-09-23T00:03:43;100450.47;;;9.30;82.34
8229;BME280;4155;50.118;8.714;2022-09-23T00:06:12;100463.25;;;9.20;83.15
8229;BME280;4155;50.118;8.714;2022-09-23T00:08:40;100456.69;;;9.45;81.34
8229;BME280;4155;50.118;8.714;2022-09-23T00:11:10;100462.47;;;9.34;82.30
8229;BME280;4155;50.118;8.714;2022-09-23T00:13:41;100459.03;;;9.25;83.08
8229;BME280;4155;50.118;8.714;2022-09-23T00:16:11;100460.94;;;9.17;83.49
8229;BME280;4155;50.118;8.714;2022-09-23T00:18:39;100454.06;;;9.14;84.38
8229;BME280;4155;50.118;8.714;2022-09-23T00:21:09;100452.06;;;9.16;83.78
8229;BME280;4155;50.118;8.714;2022-09-23T00:23:38;100455.16;;;9.28;82.54
8229;BME280;4155;50.118;8.714;2022-09-23T00:26:08;100455.69;;;9.23;82.98
8229;BME280;4155;50.118;8.714;2022-09-23T00:28:36;100451.34;;;9.22;82.55
8229;BME280;4155;50.118;8.714;2022-09-23T00:31:07;100459.38;;;9.22;82.69
8229;BME280;4155;50.118;8.714;2022-09-23T00:33:35;100458.84;;;9.27;82.72
8229;BME280;4155;50.118;8.714;2022-09-23T00:36:07;100456.00;;;9.28;82.67
8229;BME280;4155;50.118;8.714;2022-09-23T00:38:36;100457.31;;;9.33;82.60
8229;BME280;4155;50.118;8.714;2022-09-23T00:41:04;100452.50;;;9.28;82.23
8229;BME280;4155;50.118;8.714;2022-09-23T00:43:38;100457.31;;;9.33;82.12
8229;BME280;4155;50.118;8.714;2022-09-23T00:46:09;100451.84;;;9.26;82.82
8229;BME280;4155;50.118;8.714;2022-09-23T00:48:40;100446.81;;;9.23;82.91
8229;BME280;4155;50.118;8.714;2022-09-23T00:51:12;100446.63;;;9.24;83.27
8229;BME280;4155;50.118;8.714;2022-09-23T00:53:44;100441.69;;;9.13;83.40
8229;BME280;4155;50.118;8.714;2022-09-23T00:56:14;100446.91;;;9.15;83.29
8229;BME280;4155;50.118;8.714;2022-09-23T00:58:43;100441.88;;;9.12;82.98
8229;BME280;4155;50.118;8.714;2022-09-23T01:01:13;100443.06;;;9.09;83.18
8229;BME280;4155;50.118;8.714;2022-09-23T01:03:43;100442.53;;;9.14;84.00
8229;BME280;4155;50.118;8.714;2022-09-23T01:06:12;100439.09;;;9.05;84.15
8229;BME280;4155;50.118;8.714;2022-09-23T01:08:41;100434.75;;;9.04;84.27
8229;BME280;4155;50.118;8.714;2022-09-23T01:11:25;100434.25;;;9.01;84.27
8229;BME280;4155;50.118;8.714;2022-09-23T01:14:02;100435.91;;;9.02;84.33
8229;BME280;4155;50.118;8.714;2022-09-23T01:16:36;100430.69;;;8.85;84.49
8229;BME280;4155;50.118;8.714;2022-09-23T01:19:17;100432.53;;;8.85;83.80
8229;BME280;4155;50.118;8.714;2022-09-23T01:21:56;100427.97;;;8.93;84.24
8229;BME280;4155;50.118;8.714;2022-09-23T01:24:52;100431.50;;;8.86;84.08
8229;BME280;4155;50.118;8.714;2022-09-23T01:27:46;100419.16;;;8.85;84.34
8229;BME280;4155;50.118;8.714;2022-09-23T01:30:41;100425.81;;;8.89;84.27
8229;BME280;4155;50.118;8.714;2022-09-23T01:33:15;100417.50;;;8.84;83.84
8229;BME280;4155;50.118;8.714;2022-09-23T01:36:03;100418.94;;;8.63;85.50
8229;BME280;4155;50.118;8.714;2022-09-23T01:38:36;100422.53;;;8.70;85.29
8229;BME280;4155;50.118;8.714;2022-09-23T01:41:14;100417.13;;;8.56;86.14
8229;BME280;4155;50.118;8.714;2022-09-23T01:43:48;100421.97;;;8.52;86.52
8229;BME280;4155;50.118;8.714;2022-09-23T01:46:25;100413.00;;;8.37;86.48
8229;BME280;4155;50.118;8.714;2022-09-23T01:48:57;100408.66;;;8.36;87.63
8229;BME280;4155;50.118;8.714;2022-09-23T01:51:31;100413.31;;;8.34;87.71
8229;BME280;4155;50.118;8.714;2022-09-23T01:54:06;100413.69;;;8.31;88.05
8229;BME280;4155;50.118;8.714;2022-09-23T01:56:39;100405.69;;;8.23;88.42
8229;BME280;4155;50.118;8.714;2022-09-23T01:59:12;100414.69;;;8.30;88.11
8229;BME280;4155;50.118;8.714;2022-09-23T02:01:46;100409.34;;;8.30;87.87
8229;BME280;4155;50.118;8.714;2022-09-23T02:04:19;100408.66;;;8.28;87.89
8229;BME280;4155;50.118;8.714;2022-09-23T02:06:52;100404.97;;;8.29;87.93
8229;BME280;4155;50.118;8.714;2022-09-23T02:09:26;100395.81;;;8.31;87.56
8229;BME280;4155;50.118;8.714;2022-09-23T02:12:00;100401.47;;;8.28;87.65
8229;BME280;4155;50.118;8.714;2022-09-23T02:14:32;100397.28;;;8.34;87.29
8229;BME280;4155;50.118;8.714;2022-09-23T02:17:07;100403.31;;;8.28;87.22
8229;BME280;4155;50.118;8.714;2022-09-23T02:19:41;100401.66;;;8.19;87.55
8229;BME280;4155;50.118;8.714;2022-09-23T02:22:14;100400.00;;;8.18;88.14
8229;BME280;4155;50.118;8.714;2022-09-23T02:24:43;100403.38;;;8.20;88.93
8229;BME280;4155;50.118;8.714;2022-09-23T02:27:17;100401.16;;;8.23;87.29
8229;BME280;4155;50.118;8.714;2022-09-23T02:29:53;100402.69;;;8.18;87.62
8229;BME280;4155;50.118;8.714;2022-09-23T02:32:30;100402.56;;;8.11;88.74
8229;BME280;4155;50.118;8.714;2022-09-23T02:35:06;100399.00;;;8.19;88.17
8229;BME280;4155;50.118;8.714;2022-09-23T02:37:40;100395.34;;;8.20;87.96
8229;BME280;4155;50.118;8.714;2022-09-23T02:40:18;100396.69;;;8.16;87.86
8229;BME280;4155;50.118;8.714;2022-09-23T02:42:56;100391.50;;;8.14;88.02
8229;BME280;4155;50.118;8.714;2022-09-23T02:45:28;100392.81;;;8.18;87.58
8229;BME280;4155;50.118;8.714;2022-09-23T02:48:02;100402.63;;;8.34;87.40
8229;BME280;4155;50.118;8.714;2022-09-23T02:50:31;100394.47;;;8.35;86.60
8229;BME280;4155;50.118;8.714;2022-09-23T02:53:00;100386.66;;;8.18;87.35
8229;BME280;4155;50.118;8.714;2022-09-23T02:55:28;100394.84;;;8.16;87.20
8229;BME280;4155;50.118;8.714;2022-09-23T02:57:59;100381.53;;;8.00;87.23
8229;BME280;4155;50.118;8.714;2022-09-23T03:00:34;100381.53;;;8.00;87.97
8229;BME280;4155;50.118;8.714;2022-09-23T03:03:18;100374.69;;;7.97;88.39
8229;BME280;4155;50.118;8.714;2022-09-23T03:05:52;100378.53;;;7.95;88.29
8229;BME280;4155;50.118;8.714;2022-09-23T03:08:29;100365.84;;;7.97;88.55
8229;BME280;4155;50.118;8.714;2022-09-23T03:11:04;100374.06;;;7.87;88.91
8229;BME280;4155;50.118;8.714;2022-09-23T03:13:43;100358.56;;;7.82;88.93
8229;BME280;4155;50.118;8.714;2022-09-23T03:16:22;100369.88;;;7.93;88.38
8229;BME280;4155;50.118;8.714;2022-09-23T03:18:56;100366.56;;;7.74;89.23
8229;BME280;4155;50.118;8.714;2022-09-23T03:21:35;100354.06;;;7.75;89.07
8229;BME280;4155;50.118;8.714;2022-09-23T03:24:07;100356.75;;;7.67;89.52
8229;BME280;4155;50.118;8.714;2022-09-23T03:26:37;100352.91;;;7.61;89.95
8229;BME280;4155;50.118;8.714;2022-09-23T03:29:07;100360.91;;;7.69;89.64
8229;BME280;4155;50.118;8.714;2022-09-23T03:31:38;100355.94;;;7.58;89.62
8229;BME280;4155;50.118;8.714;2022-09-23T03:34:12;100363.75;;;7.68;89.84
8229;BME280;4155;50.118;8.714;2022-09-23T03:36:48;100363.94;;;7.58;89.54
8229;BME280;4155;50.118;8.714;2022-09-23T03:39:27;100355.41;;;7.54;90.91
8229;BME280;4155;50.118;8.714;2022-09-23T03:41:59;100352.75;;;7.63;91.01
8229;BME280;4155;50.118;8.714;2022-09-23T03:44:28;100357.75;;;7.66;90.46
8229;BME280;4155;50.118;8.714;2022-09-23T03:46:57;100349.22;;;7.78;89.19
8229;BME280;4155;50.118;8.714;2022-09-23T03:49:29;100359.56;;;7.81;89.51
8229;BME280;4155;50.118;8.714;2022-09-23T03:52:00;100357.03;;;7.88;89.14
8229;BME280;4155;50.118;8.714;2022-09-23T03:54:29;100353.03;;;7.84;88.74
8229;BME280;4155;50.118;8.714;2022-09-23T03:56:58;100349.34;;;7.85;88.84
8229;BME280;4155;50.118;8.714;2022-09-23T03:59:29;100354.69;;;7.85;88.45
8229;BME280;4155;50.118;8.714;2022-09-23T04:01:57;100347.69;;;7.92;88.61
8229;BME280;4155;50.118;8.714;2022-09-23T04:04:27;100345.13;;;8.07;88.26
8229;BME280;4155;50.118;8.714;2022-09-23T04:06:57;100343.13;;;8.09;87.66
8229;BME280;4155;50.118;8.714;2022-09-23T04:09:25;100341.44;;;8.08;87.48
8229;BME280;4155;50.118;8.714;2022-09-23T04:11:53;100336.16;;;8.00;87.26
8229;BME280;4155;50.118;8.714;2022-09-23T04:14:22;100335.78;;;8.03;87.52
8229;BME280;4155;50.118;8.714;2022-09-23T04:16:50;100341.66;;;7.98;87.31
8229;BME280;4155;50.118;8.714;2022-09-23T04:19:17;100332.97;;;7.96;87.63
8229;BME280;4155;50.118;8.714;2022-09-23T04:21:46;100341.13;;;8.03;87.01
8229;BME280;4155;50.118;8.714;2022-09-23T04:24:15;100334.47;;;7.99;87.51
8229;BME280;4155;50.118;8.714;2022-09-23T04:26:43;100334.31;;;8.00;87.28
8229;BME280;4155;50.118;8.714;2022-09-23T04:29:10;100339.28;;;8.03;87.22
8229;BME280;4155;50.118;8.714;2022-09-23T04:31:38;100335.94;;;8.09;87.36
8229;BME280;4155;50.118;8.714;2022-09-23T04:34:06;100340.41;;;8.17;86.82
8229;BME280;4155;50.118;8.714;2022-09-23T04:36:34;100336.44;;;8.13;86.24
8229;BME280;4155;50.118;8.714;2022-09-23T04:39:04;100328.88;;;8.17;86.52
8229;BME280;4155;50.118;8.714;2022-09-23T04:41:32;100336.44;;;8.13;86.30
8229;BME280;4155;50.118;8.714;2022-09-23T04:44:00;100338.91;;;8.15;86.56
8229;BME280;4155;50.118;8.714;2022-09-23T04:46:29;100342.25;;;8.17;86.12
8229;BME280;4155;50.118;8.714;2022-09-23T04:48:57;100337.78;;;8.09;86.76
8229;BME280;4155;50.118;8.714;2022-09-23T04:51:26;100340.72;;;8.22;85.92
8229;BME280;4155;50.118;8.714;2022-09-23T04:53:54;100341.56;;;8.23;85.70
8229;BME280;4155;50.118;8.714;2022-09-23T04:56:24;100347.19;;;8.44;85.08
8229;BME280;4155;50.118;8.714;2022-09-23T04:58:52;100338.81;;;8.47;84.36
8229;BME280;4155;50.118;8.714;2022-09-23T05:01:23;100333.34;;;8.40;84.70
8229;BME280;4155;50.118;8.714;2022-09-23T05:03:54;100337.53;;;8.35;84.49
8229;BME280;4155;50.118;8.714;2022-09-23T05:06:23;100326.31;;;8.39;84.68
8229;BME280;4155;50.118;8.714;2022-09-23T05:08:52;100337.31;;;8.45;84.59
8229;BME280;4155;50.118;8.714;2022-09-23T05:11:21;100333.66;;;8.37;85.09
8229;BME280;4155;50.118;8.714;2022-09-23T05:13:51;100333.84;;;8.36;84.73
8229;BME280;4155;50.118;8.714;2022-09-23T05:16:21;100332.34;;;8.33;85.67
8229;BME280;4155;50.118;8.714;2022-09-23T05:18:50;100330.88;;;8.23;86.03
8229;BME280;4155;50.118;8.714;2022-09-23T05:21:20;100330.22;;;8.21;85.62
8229;BME280;4155;50.118;8.714;2022-09-23T05:23:49;100328.72;;;8.18;85.79
8229;BME280;4155;50.118;8.714;2022-09-23T05:26:17;100329.91;;;8.16;86.21
8229;BME280;4155;50.118;8.714;2022-09-23T05:28:45;100343.41;;;8.22;86.82
8229;BME280;4155;50.118;8.714;2022-09-23T05:31:15;100326.53;;;8.22;85.85
8229;BME280;4155;50.118;8.714;2022-09-23T05:33:48;100340.53;;;8.32;85.91
8229;BME280;4155;50.118;8.714;2022-09-23T05:36:18;100331.44;;;8.49;84.57
8229;BME280;4155;50.118;8.714;2022-09-23T05:38:47;100341.06;;;8.58;83.68
8229;BME280;4155;50.118;8.714;2022-09-23T05:41:17;100334.38;;;8.62;83.77
8229;BME280;4155;50.118;8.714;2022-09-23T05:43:45;100337.88;;;8.94;82.52
8229;BME280;4155;50.118;8.714;2022-09-23T05:46:16;100343.03;;;9.18;81.21
8229;BME280;4155;50.118;8.714;2022-09-23T05:48:44;100340.13;;;9.43;80.98
8229;BME280;4155;50.118;8.714;2022-09-23T05:51:14;100359.63;;;9.66;79.54
8229;BME280;4155;50.118;8.714;2022-09-23T05:53:43;100352.47;;;9.81;78.18
8229;BME280;4155;50.118;8.714;2022-09-23T05:56:11;100354.25;;;10.04;77.31
8229;BME280;4155;50.118;8.714;2022-09-23T05:58:39;100352.94;;;10.14;76.29
8229;BME280;4155;50.118;8.714;2022-09-23T06:01:10;100345.50;;;10.61;75.31
8229;BME280;4155;50.118;8.714;2022-09-23T06:03:44;100354.38;;;11.19;73.38
8229;BME280;4155;50.118;8.714;2022-09-23T06:06:13;100350.19;;;11.38;72.52
8229;BME280;4155;50.118;8.714;2022-09-23T06:08:41;100346.03;;;12.12;70.02
8229;BME280;4155;50.118;8.714;2022-09-23T06:11:10;100341.41;;;12.48;68.12
8229;BME280;4155;50.118;8.714;2022-09-23T06:13:39;100349.69;;;12.46;67.42
8229;BME280;4155;50.118;8.714;2022-09-23T06:16:09;100347.44;;;12.56;67.00
8229;BME280;4155;50.118;8.714;2022-09-23T06:18:38;100346.00;;;13.41;64.79
8229;BME280;4155;50.118;8.714;2022-09-23T06:21:10;100342.81;;;13.04;64.51
8229;BME280;4155;50.118;8.714;2022-09-23T06:23:38;100343.25;;;13.94;61.88
8229;BME280;4155;50.118;8.714;2022-09-23T06:26:09;100330.00;;;13.59;62.46
8229;BME280;4155;50.118;8.714;2022-09-23T06:28:39;100322.31;;;13.03;63.53
8229;BME280;4155;50.118;8.714;2022-09-23T06:31:10;100319.91;;;12.06;67.93
8229;BME280;4155;50.118;8.714;2022-09-23T06:33:40;100317.97;;;11.38;69.91
8229;BME280;4155;50.118;8.714;2022-09-23T06:36:11;100316.88;;;12.16;67.31
8229;BME280;4155;50.118;8.714;2022-09-23T06:38:49;100308.38;;;11.50;68.97
8229;BME280;4155;50.118;8.714;2022-09-23T06:41:17;100308.00;;;11.81;68.79
8229;BME280;4155;50.118;8.714;2022-09-23T06:43:46;100298.28;;;11.58;69.62
8229;BME280;4155;50.118;8.714;2022-09-23T06:46:15;100293.81;;;10.88;71.54
8229;BME280;4155;50.118;8.714;2022-09-23T06:48:43;100299.91;;;11.25;71.43
8229;BME280;4155;50.118;8.714;2022-09-23T06:51:13;100312.53;;;11.52;70.77
8229;BME280;4155;50.118;8.714;2022-09-23T06:53:45;100315.09;;;12.43;67.24
8229;BME280;4155;50.118;8.714;2022-09-23T06:56:14;100310.25;;;12.19;67.08
8229;BME280;4155;50.118;8.714;2022-09-23T06:58:44;100299.84;;;11.74;69.12
8229;BME280;4155;50.118;8.714;2022-09-23T07:01:13;100301.31;;;12.11;68.38
8229;BME280;4155;50.118;8.714;2022-09-23T07:03:43;100305.25;;;12.09;67.63
8229;BME280;4155;50.118;8.714;2022-09-23T07:06:13;100296.09;;;11.97;68.75
8229;BME280;4155;50.118;8.714;2022-09-23T07:08:42;100309.13;;;12.54;67.48
8229;BME280;4155;50.118;8.714;2022-09-23T07:11:10;100303.00;;;12.19;66.89
8229;BME280;4155;50.118;8.714;2022-09-23T07:13:38;100303.22;;;12.79;66.46
8229;BME280;4155;50.118;8.714;2022-09-23T07:16:08;100306.13;;;12.90;64.47
8229;BME280;4155;50.118;8.714;2022-09-23T07:18:37;100314.66;;;13.60;62.89
8229;BME280;4155;50.118;8.714;2022-09-23T07:21:07;100311.94;;;13.86;62.45
8229;BME280;4155;50.118;8.714;2022-09-23T07:23:38;100300.34;;;13.07;63.69
8229;BME280;4155;50.118;8.714;2022-09-23T07:26:06;100307.63;;;13.39;62.87
8229;BME280;4155;50.118;8.714;2022-09-23T07:28:34;100298.75;;;13.52;63.51
8229;BME280;4155;50.118;8.714;2022-09-23T07:33:32;100309.31;;;14.31;61.12
8229;BME280;4155;50.118;8.714;2022-09-23T07:36:04;100306.47;;;14.13;61.99
8229;BME280;4155;50.118;8.714;2022-09-23T07:38:32;100295.56;;;13.81;61.69
8229;BME280;4155;50.118;8.714;2022-09-23T07:41:03;100287.09;;;12.98;63.93
8229;BME280;4155;50.118;8.714;2022-09-23T07:43:31;100285.63;;;13.69;63.39
8229;BME280;4155;50.118;8.714;2022-09-23T07:46:00;100283.38;;;14.30;61.10
8229;BME280;4155;50.118;8.714;2022-09-23T07:48:29;100281.81;;;14.61;60.13
8229;BME280;4155;50.118;8.714;2022-09-23T07:51:05;100284.19;;;15.07;58.18
8229;BME280;4155;50.118;8.714;2022-09-23T07:53:33;100298.84;;;15.18;58.13
8229;BME280;4155;50.118;8.714;2022-09-23T07:56:02;100293.09;;;15.82;56.14
8229;BME280;4155;50.118;8.714;2022-09-23T07:58:32;100288.81;;;16.11;56.06
8229;BME280;4155;50.118;8.714;2022-09-23T08:01:02;100287.19;;;15.74;56.18
8229;BME280;4155;50.118;8.714;2022-09-23T08:03:30;100283.31;;;14.50;59.22
8229;BME280;4155;50.118;8.714;2022-09-23T08:06:05;100283.38;;;14.75;59.16
8229;BME280;4155;50.118;8.714;2022-09-23T08:08:33;100285.88;;;15.51;57.48
8229;BME280;4155;50.118;8.714;2022-09-23T08:11:08;100292.66;;;16.04;56.08
8229;BME280;4155;50.118;8.714;2022-09-23T08:13:36;100296.25;;;16.83;53.49
8229;BME280;4155;50.118;8.714;2022-09-23T08:16:05;100286.25;;;15.80;56.25
8229;BME280;4155;50.118;8.714;2022-09-23T08:18:33;100287.41;;;16.27;54.66
8229;BME280;4155;50.118;8.714;2022-09-23T08:21:01;100287.94;;;17.08;52.92
8229;BME280;4155;50.118;8.714;2022-09-23T08:23:29;100294.47;;;17.53;52.53
8229;BME280;4155;50.118;8.714;2022-09-23T08:26:00;100278.66;;;17.15;52.24
8229;BME280;4155;50.118;8.714;2022-09-23T08:28:31;100278.09;;;16.71;53.34
8229;BME280;4155;50.118;8.714;2022-09-23T08:30:59;100276.88;;;17.21;53.12
8229;BME280;4155;50.118;8.714;2022-09-23T08:33:27;100279.31;;;16.99;53.05
8229;BME280;4155;50.118;8.714;2022-09-23T08:35:58;100272.19;;;17.16;52.86
8229;BME280;4155;50.118;8.714;2022-09-23T08:38:26;100270.19;;;17.23;52.49
8229;BME280;4155;50.118;8.714;2022-09-23T08:41:04;100275.41;;;16.83;53.40
8229;BME280;4155;50.118;8.714;2022-09-23T08:43:36;100276.53;;;17.17;53.05
8229;BME280;4155;50.118;8.714;2022-09-23T08:46:08;100270.94;;;17.77;52.33
8229;BME280;4155;50.118;8.714;2022-09-23T08:48:41;100259.28;;;18.17;50.80
8229;BME280;4155;50.118;8.714;2022-09-23T08:51:13;100266.13;;;18.19;51.59
8229;BME280;4155;50.118;8.714;2022-09-23T08:53:41;100258.88;;;17.73;51.52
8229;BME280;4155;50.118;8.714;2022-09-23T08:56:13;100250.28;;;15.98;55.18
8229;BME280;4155;50.118;8.714;2022-09-23T08:58:50;100259.16;;;15.43;57.71
8229;BME280;4155;50.118;8.714;2022-09-23T09:01:26;100251.56;;;15.52;58.71
8229;BME280;4155;50.118;8.714;2022-09-23T09:03:58;100250.41;;;15.41;58.91
8229;BME280;4155;50.118;8.714;2022-09-23T09:06:29;100244.50;;;14.44;60.91
8229;BME280;4155;50.118;8.714;2022-09-23T09:09:21;100254.09;;;15.03;61.00
8229;BME280;4155;50.118;8.714;2022-09-23T09:11:52;100256.22;;;15.20;60.38
8229;BME280;4155;50.118;8.714;2022-09-23T09:14:27;100241.16;;;15.55;59.30
8229;BME280;4155;50.118;8.714;2022-09-23T09:17:00;100240.38;;;15.48;59.03
8229;BME280;4155;50.118;8.714;2022-09-23T09:19:45;100238.03;;;15.77;59.30
8229;BME280;4155;50.118;8.714;2022-09-23T09:22:19;100241.94;;;16.17;57.02
8229;BME280;4155;50.118;8.714;2022-09-23T09:24:48;100245.25;;;16.49;56.82
8229;BME280;4155;50.118;8.714;2022-09-23T09:27:16;100248.34;;;16.35;55.95
8229;BME280;4155;50.118;8.714;2022-09-23T09:29:48;100242.94;;;16.35;55.87
8229;BME280;4155;50.118;8.714;2022-09-23T09:32:35;100240.69;;;16.32;56.56
8229;BME280;4155;50.118;8.714;2022-09-23T09:35:19;100249.66;;;16.62;55.52
8229;BME280;4155;50.118;8.714;2022-09-23T09:37:51;100240.41;;;16.70;55.38
8229;BME280;4155;50.118;8.714;2022-09-23T09:40:19;100234.53;;;16.73;54.61
8229;BME280;4155;50.118;8.714;2022-09-23T09:42:48;100243.75;;;16.95;55.07
8229;BME280;4155;50.118;8.714;2022-09-23T09:45:28;100230.78;;;16.56;56.18
8229;BME280;4155;50.118;8.714;2022-09-23T09:48:04;100221.06;;;16.36;56.04
8229;BME280;4155;50.118;8.714;2022-09-23T09:50:41;100215.22;;;16.51;55.73
8229;BME280;4155;50.118;8.714;2022-09-23T09:53:20;100216.53;;;16.48;55.96
8229;BME280;4155;50.118;8.714;2022-09-23T09:56:08;100206.28;;;16.51;56.15
8229;BME280;4155;50.118;8.714;2022-09-23T09:58:41;100201.44;;;16.71;55.35
8229;BME280;4155;50.118;8.714;2022-09-23T10:01:23;100196.84;;;16.11;56.55
8229;BME280;4155;50.118;8.714;2022-09-23T10:03:54;100196.53;;;16.49;56.59
8229;BME280;4155;50.118;8.714;2022-09-23T10:06:26;100193.03;;;16.31;56.45
8229;BME280;4155;50.118;8.714;2022-09-23T10:09:13;100203.94;;;16.54;55.53
8229;BME280;4155;50.118;8.714;2022-09-23T10:14:27;100193.22;;;17.36;53.84
8229;BME280;4155;50.118;8.714;2022-09-23T10:17:03;100190.16;;;17.44;53.39
8229;BME280;4155;50.118;8.714;2022-09-23T10:19:34;100190.72;;;17.58;52.89
8229;BME280;4155;50.118;8.714;2022-09-23T10:22:07;100189.84;;;16.64;53.19
8229;BME280;4155;50.118;8.714;2022-09-23T10:24:47;100188.78;;;16.65;54.06
8229;BME280;4155;50.118;8.714;2022-09-23T10:27:15;100191.56;;;17.00;52.49
8229;BME280;4155;50.118;8.714;2022-09-23T10:29:54;100192.03;;;17.20;52.36
8229;BME280;4155;50.118;8.714;2022-09-23T10:32:29;100191.81;;;17.45;53.01
8229;BME280;4155;50.118;8.714;2022-09-23T10:35:01;100184.38;;;17.29;52.30
8229;BME280;4155;50.118;8.714;2022-09-23T10:37:31;100182.25;;;17.43;53.06
8229;BME280;4155;50.118;8.714;2022-09-23T10:40:11;100177.66;;;17.31;51.77
8229;BME280;4155;50.118;8.714;2022-09-23T10:43:18;100174.22;;;17.71;52.81
8229;BME280;4155;50.118;8.714;2022-09-23T10:46:10;100171.47;;;17.83;51.79
8229;BME280;4155;50.118;8.714;2022-09-23T10:49:16;100170.25;;;17.39;52.38
8229;BME280;4155;50.118;8.714;2022-09-23T10:51:58;100167.41;;;17.57;52.78
8229;BME280;4155;50.118;8.714;2022-09-23T10:54:38;100151.47;;;17.60;51.82
8229;BME280;4155;50.118;8.714;2022-09-23T10:57:22;100158.66;;;17.78;52.10
8229;BME280;4155;50.118;8.714;2022-09-23T11:00:18;100161.72;;;17.70;51.85
8229;BME280;4155;50.118;8.714;2022-09-23T11:03:01;100155.72;;;17.56;52.67
8229;BME280;4155;50.118;8.714;2022-09-23T11:05:40;100143.53;;;17.82;50.61
8229;BME280;4155;50.118;8.714;2022-09-23T11:08:27;100139.19;;;17.70;51.17
8229;BME280;4155;50.118;8.714;2022-09-23T11:11:04;100137.44;;;18.04;51.43
8229;BME280;4155;50.118;8.714;2022-09-23T11:13:53;100135.16;;;18.12;49.79
8229;BME280;4155;50.118;8.714;2022-09-23T11:16:35;100127.22;;;18.56;49.94
8229;BME280;4155;50.118;8.714;2022-09-23T11:19:23;100137.47;;;18.83;49.43
8229;BME280;4155;50.118;8.714;2022-09-23T11:22:14;100129.34;;;18.20;50.35
8229;BME280;4155;50.118;8.714;2022-09-23T11:28:06;100118.72;;;18.36;51.00
8229;BME280;4155;50.118;8.714;2022-09-23T11:30:43;100103.84;;;18.38;50.40
8229;BME280;4155;50.118;8.714;2022-09-23T11:33:23;100108.16;;;17.77;50.13
8229;BME280;4155;50.118;8.714;2022-09-23T11:35:57;100108.19;;;18.39;50.56
8229;BME280;4155;50.118;8.714;2022-09-23T11:38:34;100109.66;;;18.75;50.68
8229;BME280;4155;50.118;8.714;2022-09-23T11:41:12;100104.06;;;18.82;50.42
8229;BME280;4155;50.118;8.714;2022-09-23T11:43:45;100109.59;;;18.92;51.03
8229;BME280;4155;50.118;8.714;2022-09-23T11:46:26;100096.88;;;18.93;49.50
8229;BME280;4155;50.118;8.714;2022-09-23T11:48:58;100092.88;;;19.00;49.96
8229;BME280;4155;50.118;8.714;2022-09-23T11:51:32;100089.38;;;19.22;49.55
8229;BME280;4155;50.118;8.714;2022-09-23T11:54:11;100090.91;;;19.56;49.30
8229;BME280;4155;50.118;8.714;2022-09-23T11:56:49;100088.78;;;19.58;47.38
8229;BME280;4155;50.118;8.714;2022-09-23T11:59:25;100091.13;;;19.72;48.67
8229;BME280;4155;50.118;8.714;2022-09-23T12:02:14;100081.47;;;19.86;47.80
8229;BME280;4155;50.118;8.714;2022-09-23T12:04:55;100080.44;;;20.19;45.48
8229;BME280;4155;50.118;8.714;2022-09-23T12:07:32;100080.22;;;20.53;45.83
8229;BME280;4155;50.118;8.714;2022-09-23T12:10:08;100075.69;;;20.68;45.34
8229;BME280;4155;50.118;8.714;2022-09-23T12:12:43;100059.16;;;20.16;45.22
8229;BME280;4155;50.118;8.714;2022-09-23T12:15:24;100065.97;;;20.13;46.11
8229;BME280;4155;50.118;8.714;2022-09-23T12:18:07;100059.66;;;19.81;45.91
8229;BME280;4155;50.118;8.714;2022-09-23T12:21:10;100052.88;;;20.10;46.19
8229;BME280;4155;50.118;8.714;2022-09-23T12:24:21;100057.63;;;20.25;46.53
8229;BME280;4155;50.118;8.714;2022-09-23T12:26:57;100055.19;;;20.61;45.62
8229;BME280;4155;50.118;8.714;2022-09-23T12:29:29;100048.91;;;20.28;46.48
8229;BME280;4155;50.118;8.714;2022-09-23T12:31:58;100055.34;;;20.44;46.02
8229;BME280;4155;50.118;8.714;2022-09-23T12:34:28;100044.34;;;20.34;46.99
8229;BME280;4155;50.118;8.714;2022-09-23T12:37:01;100043.66;;;20.48;46.01
8229;BME280;4155;50.118;8.714;2022-09-23T12:39:30;100047.25;;;20.22;47.46
8229;BME280;4155;50.118;8.714;2022-09-23T12:42:02;100038.91;;;20.34;47.05
8229;BME280;4155;50.118;8.714;2022-09-23T12:44:34;100045.38;;;20.28;46.74
8229;BME280;4155;50.118;8.714;2022-09-23T12:47:29;100037.81;;;20.67;46.30
8229;BME280;4155;50.118;8.714;2022-09-23T12:49:58;100031.59;;;20.76;45.73
8229;BME280;4155;50.118;8.714;2022-09-23T12:52:28;100038.00;;;20.97;47.03
8229;BME280;4155;50.118;8.714;2022-09-23T12:55:08;100036.53;;;21.32;45.83
8229;BME280;4155;50.118;8.714;2022-09-23T12:57:46;100020.59;;;21.14;43.52
8229;BME280;4155;50.118;8.714;2022-09-23T13:00:22;100017.66;;;21.25;44.58
8229;BME280;4155;50.118;8.714;2022-09-23T13:02:54;100018.00;;;21.34;44.31
8229;BME280;4155;50.118;8.714;2022-09-23T13:05:42;100015.25;;;21.29;44.33
8229;BME280;4155;50.118;8.714;2022-09-23T13:08:29;100013.13;;;21.46;44.79
8229;BME280;4155;50.118;8.714;2022-09-23T13:11:00;100012.00;;;20.79;45.33
8229;BME280;4155;50.118;8.714;2022-09-23T13:13:33;100005.81;;;20.99;45.40
8229;BME280;4155;50.118;8.714;2022-09-23T13:16:12;100013.81;;;21.21;44.21
8229;BME280;4155;50.118;8.714;2022-09-23T13:18:50;100008.88;;;21.08;45.12
8229;BME280;4155;50.118;8.714;2022-09-23T13:24:34;100010.28;;;20.63;45.26
8229;BME280;4155;50.118;8.714;2022-09-23T13:27:14;100005.78;;;20.47;45.23
8229;BME280;4155;50.118;8.714;2022-09-23T13:29:49;100005.50;;;20.11;46.94
8229;BME280;4155;50.118;8.714;2022-09-23T13:32:19;99993.19;;;20.09;47.52
8229;BME280;4155;50.118;8.714;2022-09-23T13:34:54;99992.88;;;20.00;46.89
8229;BME280;4155;50.118;8.714;2022-09-23T13:37:25;99991.69;;;20.23;46.57
8229;BME280;4155;50.118;8.714;2022-09-23T13:40:06;99979.44;;;20.20;45.59
8229;BME280;4155;50.118;8.714;2022-09-23T13:42:34;99971.56;;;20.29;46.55
8229;BME280;4155;50.118;8.714;2022-09-23T13:45:12;99977.63;;;20.36;47.12
8229;BME280;4155;50.118;8.714;2022-09-23T13:47:42;99973.66;;;20.49;47.09
8229;BME280;4155;50.118;8.714;2022-09-23T13:50:18;99976.38;;;20.49;47.01
8229;BME280;4155;50.118;8.714;2022-09-23T13:52:50;99969.41;;;20.63;46.75
8229;BME280;4155;50.118;8.714;2022-09-23T13:55:28;99974.63;;;20.38;46.19
8229;BME280;4155;50.118;8.714;2022-09-23T13:58:01;99973.97;;;20.53;47.33
8229;BME280;4155;50.118;8.714;2022-09-23T14:00:37;99965.53;;;20.54;46.35